Ana Sayfa
METAR-TAF:

METAR-TAF

Havaalanları :

Gaylord Regional Airport (Otsego County Airport)

Gaylord, Michigan, Amerika Birleşik Devletleri

Enlem: 45-00-59N, Boylam: 084-41-20W, yükseklik: 404 m

Güncel hava durumu gözlemi

Rapor saat 09:53 UTC de 1 saat ve 8 dakika önce yapıldı.
Sakin rüzgar
Sıcaklık 14°C
Nem 94%
Basınç 1014 hPa
Görüş mesafesi: 16.1 km
Açık gökyüzü

METAR: KGLR 210953Z AUTO 00000KT 10SM CLR 14/13 A2995 RMK AO2 SLP139 T01390133

Saat: 07:01 (11:01 UTC)


TAF: eksik

4.000'den fazla havaalanı için hava durumu gözlemleri ve tahminleri (METAR ve TAF raporları).

Kullanılabilir istasyonlar harita üzerinde sarı ve kırmızı noktalarla gösterilir.

İstasyonun adını görmek için fareyi noktanın üzerinde gezdirin.

Sonrasında hava gözlem ve tahminlerini görmek için tıklayın.

Haritayı değiştirmek için: yaklaştırmak için siyah artı işaretli yeşil düğmeye ve uzaklaştırmak için de eksi işaretli düğmeye hızla tıklayın; bitişik haritalar için yeşil okları kullanın.


METAR-TAF: